createdAt,value
2018-09-01T00:00:12.525Z,26.06
2018-09-01T00:01:12.497Z,25.97
2018-09-01T00:02:12.474Z,25.90
2018-09-01T00:03:12.416Z,25.94
2018-09-01T00:04:12.551Z,25.86
2018-09-01T00:05:12.369Z,25.82
2018-09-01T00:06:12.335Z,25.83
2018-09-01T00:07:12.307Z,25.75
2018-09-01T00:08:12.275Z,25.69
2018-09-01T00:09:12.240Z,25.64
2018-09-01T00:10:12.229Z,25.64
2018-09-01T00:11:12.276Z,25.50
2018-09-01T00:12:12.148Z,25.52
2018-09-01T00:13:12.121Z,25.42
2018-09-01T00:14:12.109Z,25.46
2018-09-01T00:15:12.053Z,25.52
2018-09-01T00:16:12.026Z,25.50
2018-09-01T00:17:12.042Z,25.52
2018-09-01T00:18:11.965Z,25.47
2018-09-01T00:19:11.936Z,25.49
2018-09-01T00:20:11.905Z,25.56
2018-09-01T00:21:11.873Z,25.44
2018-09-01T00:22:11.842Z,25.56
2018-09-01T00:23:11.811Z,25.47
2018-09-01T00:24:11.810Z,25.50
2018-09-01T00:25:11.939Z,25.46
2018-09-01T00:26:11.737Z,25.59
2018-09-01T00:27:11.690Z,25.59
2018-09-01T00:28:11.662Z,25.62
2018-09-01T00:29:11.635Z,25.67
2018-09-01T00:30:11.749Z,25.57
2018-09-01T00:31:11.564Z,25.57
2018-09-01T00:32:11.546Z,25.62
2018-09-01T00:33:11.497Z,25.67
2018-09-01T00:34:11.468Z,25.65
2018-09-01T00:35:11.461Z,25.65
2018-09-01T00:36:11.681Z,25.71
2018-09-01T00:37:11.377Z,25.69
2018-09-01T00:38:11.360Z,25.64
2018-09-01T00:39:11.310Z,25.65
2018-09-01T00:40:11.289Z,25.67
2018-09-01T00:41:11.322Z,25.62
2018-09-01T00:42:11.336Z,25.59
2018-09-01T00:43:11.362Z,25.65
2018-09-01T00:44:11.160Z,25.49
2018-09-01T00:45:11.140Z,25.54
2018-09-01T00:46:11.106Z,25.56
2018-09-01T00:47:11.623Z,25.38
2018-09-01T00:48:11.105Z,25.32
2018-09-01T00:49:11.010Z,25.34
2018-09-01T00:50:10.977Z,25.27
2018-09-01T00:51:11.012Z,25.19
2018-09-01T00:52:10.908Z,25.12
2018-09-01T00:53:11.250Z,25.10
2018-09-01T00:54:10.858Z,25.10
2018-09-01T00:55:10.828Z,25.00
2018-09-01T00:56:10.796Z,24.85
2018-09-01T00:57:10.839Z,24.95
2018-09-01T00:58:10.908Z,24.77
2018-09-01T00:59:10.711Z,24.69
2018-09-01T01:00:10.692Z,24.64
2018-09-01T01:01:10.647Z,24.63
2018-09-01T01:02:10.607Z,24.68
2018-09-01T01:03:10.572Z,24.69
2018-09-01T01:04:10.762Z,24.64
2018-09-01T01:05:10.518Z,24.69
2018-09-01T01:06:10.483Z,24.69
2018-09-01T01:07:10.449Z,24.69
2018-09-01T01:08:10.414Z,24.69
2018-09-01T01:09:10.391Z,24.63
2018-09-01T01:10:10.595Z,24.54
2018-09-01T01:11:10.340Z,24.53
2018-09-01T01:12:10.366Z,24.50
2018-09-01T01:13:10.282Z,24.54
2018-09-01T01:14:10.245Z,24.53
2018-09-01T01:15:10.205Z,24.64
2018-09-01T01:16:10.572Z,24.67
2018-09-01T01:17:10.150Z,24.68
2018-09-01T01:18:10.126Z,24.69
2018-09-01T01:19:10.093Z,24.68
2018-09-01T01:20:10.084Z,24.68
2018-09-01T01:21:10.172Z,24.76
2018-09-01T01:22:09.982Z,24.69
2018-09-01T01:23:09.949Z,24.67
2018-09-01T01:24:09.922Z,24.69
2018-09-01T01:25:09.916Z,24.69
2018-09-01T01:26:09.858Z,24.53
2018-09-01T01:27:09.827Z,24.54
2018-09-01T01:28:09.796Z,24.52
2018-09-01T01:29:09.762Z,24.50
2018-09-01T01:30:09.730Z,24.54
2018-09-01T01:31:09.896Z,24.56
2018-09-01T01:32:09.664Z,24.53
2018-09-01T01:33:09.669Z,24.45
2018-09-01T01:34:09.615Z,24.47
2018-09-01T01:35:09.580Z,24.52
2018-09-01T01:36:09.547Z,24.52
2018-09-01T01:37:09.894Z,24.50
2018-09-01T01:38:09.516Z,24.52
2018-09-01T01:39:09.455Z,24.45
2018-09-01T01:40:09.422Z,24.45
2018-09-01T01:41:09.397Z,24.39
2018-09-01T01:42:09.376Z,24.35
2018-09-01T01:43:09.534Z,24.29
2018-09-01T01:44:09.292Z,24.32
2018-09-01T01:45:09.263Z,24.35
2018-09-01T01:46:09.234Z,24.32
2018-09-01T01:47:09.238Z,24.20
2018-09-01T01:48:09.183Z,24.19
2018-09-01T01:49:09.142Z,24.12
2018-09-01T01:50:09.110Z,24.23
2018-09-01T01:51:09.076Z,24.22
2018-09-01T01:52:09.057Z,24.17
2018-09-01T01:54:09.502Z,24.16
2018-09-01T01:55:08.963Z,24.07
2018-09-01T01:56:08.951Z,24.12
2018-09-01T01:57:08.900Z,24.08
2018-09-01T01:58:08.881Z,24.00
2018-09-01T01:59:08.880Z,23.94
2018-09-01T02:00:08.812Z,23.97
2018-09-01T02:01:08.911Z,23.94
2018-09-01T02:02:08.748Z,24.01
2018-09-01T02:03:08.793Z,23.94
2018-09-01T02:04:08.659Z,23.97
2018-09-01T02:05:08.643Z,23.85
2018-09-01T02:06:08.602Z,23.86
2018-09-01T02:07:08.584Z,23.92
2018-09-01T02:08:08.571Z,23.79
2018-09-01T02:09:08.508Z,23.87
2018-09-01T02:10:08.644Z,23.85
2018-09-01T02:11:08.458Z,23.77
2018-09-01T02:12:08.478Z,23.79
2018-09-01T02:13:08.397Z,23.87
2018-09-01T02:14:08.364Z,23.85
2018-09-01T02:15:08.318Z,23.79
2018-09-01T02:16:08.336Z,23.82
2018-09-01T02:17:08.283Z,23.76
2018-09-01T02:18:08.295Z,23.83
2018-09-01T02:19:08.205Z,23.79
2018-09-01T02:20:08.160Z,23.72
2018-09-01T02:21:08.133Z,23.70
2018-09-01T02:22:08.100Z,23.75
2018-09-01T02:23:08.073Z,23.72
2018-09-01T02:24:08.045Z,23.65
2018-09-01T02:25:08.008Z,23.67
2018-09-01T02:26:07.975Z,23.67
2018-09-01T02:27:08.394Z,23.60
2018-09-01T02:28:07.936Z,23.62
2018-09-01T02:29:07.876Z,23.65
2018-09-01T02:30:07.835Z,23.62
2018-09-01T02:31:07.802Z,23.61
2018-09-01T02:32:07.780Z,23.62
2018-09-01T02:33:07.745Z,23.60
2018-09-01T02:34:07.717Z,23.65
2018-09-01T02:35:07.682Z,23.65
2018-09-01T02:36:07.653Z,23.62
2018-09-01T02:37:07.615Z,23.65
2018-09-01T02:38:07.579Z,23.61
2018-09-01T02:39:07.558Z,23.68
2018-09-01T02:40:07.525Z,23.62
2018-09-01T02:41:07.502Z,23.71
2018-09-01T02:42:07.474Z,23.61
2018-09-01T02:43:07.828Z,23.68
2018-09-01T02:44:07.385Z,23.67
2018-09-01T02:45:07.348Z,23.58
2018-09-01T02:46:07.316Z,23.70
2018-09-01T02:47:07.289Z,23.67
2018-09-01T02:48:07.279Z,23.64
2018-09-01T02:49:07.598Z,23.70
2018-09-01T02:50:07.203Z,23.67
2018-09-01T02:51:07.171Z,23.60
2018-09-01T02:52:07.126Z,23.60
2018-09-01T02:53:07.107Z,23.64
2018-09-01T02:54:07.075Z,23.62
2018-09-01T02:55:07.045Z,23.67
2018-09-01T02:56:07.003Z,23.70
2018-09-01T02:57:06.963Z,23.62
2018-09-01T02:58:06.938Z,23.60
2018-09-01T02:59:06.902Z,23.61
2018-09-01T03:00:06.880Z,23.62
2018-09-01T03:01:06.853Z,23.62
2018-09-01T03:02:06.811Z,23.64
2018-09-01T03:03:06.779Z,23.64
2018-09-01T03:04:07.142Z,23.64
2018-09-01T03:05:06.710Z,23.67
2018-09-01T03:06:06.697Z,23.57
2018-09-01T03:07:06.651Z,23.67
2018-09-01T03:08:06.628Z,23.62
2018-09-01T03:09:06.591Z,23.58
2018-09-01T03:10:06.955Z,23.67
2018-09-01T03:11:06.521Z,23.61
2018-09-01T03:12:06.492Z,23.64
2018-09-01T03:13:06.450Z,23.55
2018-09-01T03:14:06.420Z,23.58
2018-09-01T03:15:06.400Z,23.55
2018-09-01T03:16:06.458Z,23.61
2018-09-01T03:17:06.333Z,23.50
2018-09-01T03:18:06.302Z,23.50
2018-09-01T03:19:06.300Z,23.53
2018-09-01T03:20:06.241Z,23.49
2018-09-01T03:21:06.605Z,23.47
2018-09-01T03:22:06.169Z,23.45
2018-09-01T03:23:06.132Z,23.42
2018-09-01T03:24:06.104Z,23.49
2018-09-01T03:25:06.077Z,23.42
2018-09-01T03:26:06.035Z,23.39
2018-09-01T03:27:06.151Z,23.39
2018-09-01T03:28:05.978Z,23.42
2018-09-01T03:29:05.959Z,23.34
2018-09-01T03:30:05.910Z,23.43
2018-09-01T03:31:05.885Z,23.40
2018-09-01T03:32:06.242Z,23.27
2018-09-01T03:33:05.821Z,23.29
2018-09-01T03:34:05.784Z,23.29
2018-09-01T03:35:05.766Z,23.26
2018-09-01T03:36:05.751Z,23.27
2018-09-01T03:37:05.693Z,23.17
2018-09-01T03:38:05.862Z,23.08
2018-09-01T03:39:05.618Z,23.11
2018-09-01T03:40:05.585Z,23.07
2018-09-01T03:41:05.562Z,22.97
2018-09-01T03:42:05.530Z,22.96
2018-09-01T03:43:05.494Z,22.90
2018-09-01T03:44:05.662Z,22.92
2018-09-01T03:45:05.423Z,22.93
2018-09-01T03:46:05.404Z,22.94
2018-09-01T03:47:05.370Z,22.94
2018-09-01T03:48:05.382Z,22.94
2018-09-01T03:49:05.310Z,22.87
2018-09-01T03:50:05.473Z,22.92
2018-09-01T03:51:05.233Z,22.83
2018-09-01T03:52:05.211Z,22.87
2018-09-01T03:53:05.172Z,22.87
2018-09-01T03:54:05.131Z,22.82
2018-09-01T03:55:05.400Z,22.89
2018-09-01T03:56:05.078Z,22.86
2018-09-01T03:57:05.044Z,22.78
2018-09-01T03:58:05.024Z,22.83
2018-09-01T03:59:05.019Z,22.72
2018-09-01T04:00:05.093Z,22.83
2018-09-01T04:01:04.933Z,22.74
2018-09-01T04:02:04.888Z,22.78
2018-09-01T04:03:04.863Z,22.72
2018-09-01T04:04:04.823Z,22.69
2018-09-01T04:05:04.790Z,22.68
2018-09-01T04:06:04.794Z,22.68
2018-09-01T04:07:04.715Z,22.64
2018-09-01T04:08:04.689Z,22.60
2018-09-01T04:09:04.666Z,22.59
2018-09-01T04:10:04.627Z,22.68
2018-09-01T04:11:05.000Z,22.52
2018-09-01T04:12:04.563Z,22.52
2018-09-01T04:13:04.523Z,22.53
2018-09-01T04:14:04.494Z,22.54
2018-09-01T04:15:04.461Z,22.52
2018-09-01T04:16:04.428Z,22.44
2018-09-01T04:17:04.395Z,22.43
2018-09-01T04:18:04.364Z,22.44
2018-09-01T04:19:04.381Z,22.41
2018-09-01T04:20:04.296Z,22.49
2018-09-01T04:21:04.270Z,22.41
2018-09-01T04:22:04.232Z,22.38
2018-09-01T04:23:04.211Z,22.41
2018-09-01T04:24:04.173Z,22.49
2018-09-01T04:25:04.144Z,22.44
2018-09-01T04:26:04.104Z,22.47
2018-09-01T04:27:04.368Z,22.41
2018-09-01T04:28:04.055Z,22.44
2018-09-01T04:29:04.010Z,22.37
2018-09-01T04:30:03.986Z,22.38
2018-09-01T04:31:03.941Z,22.27
2018-09-01T04:32:04.249Z,22.46
2018-09-01T04:33:03.866Z,22.35
2018-09-01T04:34:03.833Z,22.34
2018-09-01T04:35:03.808Z,22.34
2018-09-01T04:36:03.766Z,22.34
2018-09-01T04:37:03.748Z,22.38
2018-09-01T04:38:03.715Z,22.35
2018-09-01T04:39:03.672Z,22.38
2018-09-01T04:40:03.652Z,22.32
2018-09-01T04:41:03.610Z,22.29
2018-09-01T04:42:03.576Z,22.28
2018-09-01T04:43:03.641Z,22.28
2018-09-01T04:44:03.514Z,22.29
2018-09-01T04:45:03.492Z,22.23
2018-09-01T04:46:03.440Z,22.37
2018-09-01T04:47:03.481Z,22.34
2018-09-01T04:48:03.384Z,22.32
2018-09-01T04:49:03.350Z,22.34
2018-09-01T04:50:03.320Z,22.29
2018-09-01T04:51:03.285Z,22.27
2018-09-01T04:52:03.262Z,22.32
2018-09-01T04:53:03.216Z,22.34
2018-09-01T04:54:03.188Z,22.35
2018-09-01T04:55:03.149Z,22.35
2018-09-01T04:56:03.118Z,22.35
2018-09-01T04:57:03.092Z,22.37
2018-09-01T04:58:03.047Z,22.34
2018-09-01T04:59:03.420Z,22.35
2018-09-01T05:00:02.987Z,22.38
2018-09-01T05:01:03.038Z,22.28
2018-09-01T05:02:02.920Z,22.41
2018-09-01T05:03:02.931Z,22.44
2018-09-01T05:04:03.212Z,22.43
2018-09-01T05:05:02.837Z,22.49
2018-09-01T05:06:02.794Z,22.35
2018-09-01T05:07:02.784Z,22.43
2018-09-01T05:08:02.731Z,22.38
2018-09-01T05:09:02.712Z,22.46
2018-09-01T05:10:02.864Z,22.41
2018-09-01T05:11:02.679Z,22.41
2018-09-01T05:12:02.605Z,22.49
2018-09-01T05:13:02.575Z,22.53
2018-09-01T05:14:02.538Z,22.41
2018-09-01T05:15:02.510Z,22.46
2018-09-01T05:16:02.782Z,22.53
2018-09-01T05:17:02.445Z,22.47
2018-09-01T05:18:02.406Z,22.53
2018-09-01T05:19:02.373Z,22.44
2018-09-01T05:20:02.343Z,22.44
2018-09-01T05:21:02.311Z,22.46
2018-09-01T05:22:02.328Z,22.43
2018-09-01T05:23:02.251Z,22.39
2018-09-01T05:24:02.226Z,22.44
2018-09-01T05:25:02.193Z,22.44
2018-09-01T05:26:02.155Z,22.38
2018-09-01T05:27:02.120Z,22.35
2018-09-01T05:28:02.430Z,22.29
2018-09-01T05:29:02.051Z,22.19
2018-09-01T05:30:02.013Z,22.23
2018-09-01T05:31:02.028Z,22.19
2018-09-01T05:32:01.968Z,22.17
2018-09-01T05:33:02.115Z,22.17
2018-09-01T05:34:01.884Z,22.04
2018-09-01T05:35:01.851Z,22.14
2018-09-01T05:36:01.817Z,22.09
2018-09-01T05:37:01.773Z,22.04
2018-09-01T05:38:01.747Z,22.07
2018-09-01T05:39:01.916Z,22.09
2018-09-01T05:40:01.687Z,22.04
2018-09-01T05:41:01.647Z,22.04
2018-09-01T05:42:01.612Z,22.02
2018-09-01T05:43:01.579Z,22.07
2018-09-01T05:44:01.556Z,21.95
2018-09-01T05:45:01.674Z,21.97
2018-09-01T05:46:01.491Z,22.04
2018-09-01T05:47:01.457Z,21.97
2018-09-01T05:48:01.418Z,21.92
2018-09-01T05:49:01.389Z,21.91
2018-09-01T05:50:01.352Z,21.83
2018-09-01T05:51:01.313Z,21.90
2018-09-01T05:52:01.284Z,21.83
2018-09-01T05:53:01.257Z,21.82
2018-09-01T05:54:01.216Z,21.82
2018-09-01T05:55:01.204Z,21.90
2018-09-01T05:56:01.184Z,21.97
2018-09-01T05:57:01.123Z,21.90
2018-09-01T05:58:01.090Z,21.82
2018-09-01T05:59:01.055Z,21.79
2018-09-01T06:00:01.019Z,21.76
2018-09-01T06:01:00.993Z,21.74
2018-09-01T06:02:00.952Z,21.75
2018-09-01T06:03:00.928Z,21.74
2018-09-01T06:04:00.909Z,21.71
2018-09-01T06:05:00.875Z,21.64
2018-09-01T06:07:01.093Z,21.69
2018-09-01T06:08:00.759Z,21.72
2018-09-01T06:09:00.728Z,21.74
2018-09-01T06:10:00.707Z,21.69
2018-09-01T06:11:00.673Z,21.76
2018-09-01T06:12:00.629Z,21.72
2018-09-01T06:13:00.822Z,21.67
2018-09-01T06:14:00.573Z,21.71
2018-09-01T06:15:00.541Z,21.61
2018-09-01T06:16:00.508Z,21.61
2018-09-01T06:17:00.462Z,21.72
2018-09-01T06:18:00.506Z,21.67
2018-09-01T06:19:00.799Z,21.61
2018-09-01T06:20:00.375Z,21.74
2018-09-01T06:21:00.333Z,21.76
2018-09-01T06:22:00.347Z,21.72
2018-09-01T06:23:00.273Z,21.72
2018-09-01T06:24:00.243Z,21.72
2018-09-01T06:25:00.643Z,21.67
2018-09-01T06:26:00.174Z,21.71
2018-09-01T06:27:00.139Z,21.71
2018-09-01T06:28:00.111Z,21.67
2018-09-01T06:29:00.075Z,21.72
2018-09-01T06:30:00.162Z,21.75
2018-09-01T06:31:00.061Z,21.74
2018-09-01T06:32:00.091Z,21.69
2018-09-01T06:33:00.017Z,21.72
2018-09-01T06:33:59.896Z,21.74
2018-09-01T06:34:59.877Z,21.61
2018-09-01T06:36:00.189Z,21.66
2018-09-01T06:36:59.821Z,21.66
2018-09-01T06:37:59.762Z,21.63
2018-09-01T06:38:59.748Z,21.53
2018-09-01T06:39:59.697Z,21.53
2018-09-01T06:40:59.671Z,21.60
2018-09-01T06:41:59.740Z,21.56
2018-09-01T06:42:59.604Z,21.51
2018-09-01T06:43:59.564Z,21.54
2018-09-01T06:44:59.541Z,21.54
2018-09-01T06:45:59.544Z,21.51
2018-09-01T06:46:59.623Z,21.56
2018-09-01T06:47:59.455Z,21.59
2018-09-01T06:48:59.413Z,21.48
2018-09-01T06:49:59.363Z,21.45
2018-09-01T06:50:59.342Z,21.54
2018-09-01T06:51:59.556Z,21.54
2018-09-01T06:52:59.275Z,21.50
2018-09-01T06:53:59.243Z,21.50
2018-09-01T06:54:59.237Z,21.50
2018-09-01T06:55:59.174Z,21.53
2018-09-01T06:56:59.546Z,21.54
2018-09-01T06:57:59.105Z,21.46
2018-09-01T06:58:59.083Z,21.54
2018-09-01T06:59:59.038Z,21.41
2018-09-01T07:00:59.013Z,21.46
2018-09-01T07:01:58.980Z,21.42
2018-09-01T07:02:58.950Z,21.50
2018-09-01T07:03:58.922Z,21.44
2018-09-01T07:04:58.881Z,21.41
2018-09-01T07:05:58.838Z,21.42
2018-09-01T07:06:58.821Z,21.56
2018-09-01T07:07:58.785Z,21.39
2018-09-01T07:08:58.741Z,21.53
2018-09-01T07:09:58.714Z,21.39
2018-09-01T07:10:58.677Z,21.46
2018-09-01T07:11:58.644Z,21.41
2018-09-01T07:12:58.835Z,21.45
2018-09-01T07:13:58.582Z,21.42
2018-09-01T07:14:58.544Z,21.38
2018-09-01T07:15:58.511Z,21.36
2018-09-01T07:16:58.481Z,21.35
2018-09-01T07:17:58.450Z,21.38
2018-09-01T07:18:58.772Z,21.39
2018-09-01T07:19:58.386Z,21.34
2018-09-01T07:20:58.354Z,21.36
2018-09-01T07:21:58.314Z,21.41
2018-09-01T07:22:58.287Z,21.32
2018-09-01T07:23:58.257Z,21.24
2018-09-01T07:24:58.217Z,21.20
2018-09-01T07:25:58.186Z,21.16
2018-09-01T07:26:58.151Z,21.23
2018-09-01T07:27:58.109Z,21.16
2018-09-01T07:28:58.083Z,21.16
2018-09-01T07:29:58.041Z,21.16
2018-09-01T07:30:58.291Z,21.11
2018-09-01T07:31:57.973Z,21.05
2018-09-01T07:32:57.944Z,21.04
2018-09-01T07:33:58.115Z,21.01
2018-09-01T07:34:57.888Z,20.98
2018-09-01T07:35:57.845Z,21.04
2018-09-01T07:36:57.815Z,20.98
2018-09-01T07:37:57.784Z,20.98
2018-09-01T07:38:57.743Z,20.95
2018-09-01T07:39:58.012Z,21.01
2018-09-01T07:40:57.681Z,21.06
2018-09-01T07:41:57.643Z,21.09
2018-09-01T07:42:57.618Z,21.06
2018-09-01T07:43:57.575Z,21.06
2018-09-01T07:44:57.543Z,21.13
2018-09-01T07:45:57.518Z,21.09
2018-09-01T07:46:57.475Z,20.98
2018-09-01T07:47:57.442Z,21.05
2018-09-01T07:48:57.417Z,21.02
2018-09-01T07:49:57.417Z,20.96
2018-09-01T07:50:57.344Z,20.96
2018-09-01T07:51:57.613Z,20.89
2018-09-01T07:52:57.283Z,20.86
2018-09-01T07:53:57.252Z,20.89
2018-09-01T07:54:57.214Z,20.89
2018-09-01T07:55:57.186Z,20.96
2018-09-01T07:56:57.299Z,20.87
2018-09-01T07:57:57.113Z,20.89
2018-09-01T07:58:57.075Z,20.89
2018-09-01T07:59:57.052Z,20.93
2018-09-01T08:00:57.022Z,20.96
2018-09-01T08:01:56.983Z,20.90
2018-09-01T08:02:57.244Z,20.90
2018-09-01T08:03:56.919Z,20.87
2018-09-01T08:04:56.879Z,20.87
2018-09-01T08:05:56.850Z,20.83
2018-09-01T08:06:56.814Z,20.86
2018-09-01T08:07:56.784Z,20.86
2018-09-01T08:08:56.991Z,20.84
2018-09-01T08:09:56.703Z,20.89
2018-09-01T08:10:56.678Z,20.80
2018-09-01T08:11:56.637Z,20.77
2018-09-01T08:12:56.616Z,20.81
2018-09-01T08:13:56.737Z,20.81
2018-09-01T08:14:56.766Z,20.81
2018-09-01T08:15:56.511Z,20.83
2018-09-01T08:16:56.476Z,20.86
2018-09-01T08:17:56.449Z,20.77
2018-09-01T08:18:56.411Z,20.77
2018-09-01T08:19:56.375Z,20.81
2018-09-01T08:20:56.347Z,20.71
2018-09-01T08:21:56.308Z,20.79
2018-09-01T08:22:56.276Z,20.76
2018-09-01T08:23:56.236Z,20.77
2018-09-01T08:24:56.262Z,20.74
2018-09-01T08:25:56.358Z,20.80
2018-09-01T08:26:56.136Z,20.80
2018-09-01T08:27:56.107Z,20.74
2018-09-01T08:28:56.065Z,20.77
2018-09-01T08:29:56.037Z,20.72
2018-09-01T08:30:56.094Z,20.81
2018-09-01T08:31:55.961Z,20.80
2018-09-01T08:32:55.926Z,20.62
2018-09-01T08:33:55.953Z,20.74
2018-09-01T08:34:55.871Z,20.69
2018-09-01T08:35:55.832Z,20.69
2018-09-01T08:36:56.093Z,20.69
2018-09-01T08:37:55.764Z,20.62
2018-09-01T08:38:55.731Z,20.71
2018-09-01T08:39:55.694Z,20.65
2018-09-01T08:40:55.666Z,20.59
2018-09-01T08:41:55.620Z,20.76
2018-09-01T08:42:55.749Z,20.62
2018-09-01T08:43:55.554Z,20.69
2018-09-01T08:44:55.520Z,20.65
2018-09-01T08:45:55.494Z,20.65
2018-09-01T08:46:55.467Z,20.68
2018-09-01T08:47:55.429Z,20.65
2018-09-01T08:48:55.399Z,20.64
2018-09-01T08:50:28.580Z,20.59
2018-09-01T08:50:55.334Z,20.58
2018-09-01T08:51:55.303Z,20.59
2018-09-01T08:52:55.466Z,20.59
2018-09-01T08:53:55.225Z,20.53
2018-09-01T08:54:55.198Z,20.51
2018-09-01T08:55:55.152Z,20.50
2018-09-01T08:56:55.124Z,20.46
2018-09-01T08:57:55.096Z,20.43
2018-09-01T08:58:55.069Z,20.33
2018-09-01T08:59:55.023Z,20.31
2018-09-01T09:00:54.993Z,20.47
2018-09-01T09:01:54.950Z,20.33
2018-09-01T09:02:54.917Z,20.38
2018-09-01T09:03:55.242Z,20.38
2018-09-01T09:04:54.882Z,20.34
2018-09-01T09:05:54.825Z,20.34
2018-09-01T09:06:54.788Z,20.34
2018-09-01T09:07:54.754Z,20.35
2018-09-01T09:08:54.720Z,20.30
2018-09-01T09:09:54.883Z,20.31
2018-09-01T09:10:54.645Z,20.27
2018-09-01T09:11:54.618Z,20.24
2018-09-01T09:12:54.575Z,20.23
2018-09-01T09:13:54.549Z,20.13
2018-09-01T09:14:54.516Z,20.16
2018-09-01T09:15:54.480Z,20.20
2018-09-01T09:16:54.445Z,20.24
2018-09-01T09:17:54.416Z,20.16
2018-09-01T09:18:54.391Z,20.24
2018-09-01T09:19:54.345Z,20.16
2018-09-01T09:20:55.559Z,20.24
2018-09-01T09:21:54.276Z,20.23
2018-09-01T09:22:54.250Z,20.16
2018-09-01T09:23:54.218Z,20.25
2018-09-01T09:24:54.189Z,20.21
2018-09-01T09:25:54.151Z,20.23
2018-09-01T09:26:54.514Z,20.18
2018-09-01T09:27:54.074Z,20.24
2018-09-01T09:28:54.040Z,20.15
2018-09-01T09:29:54.014Z,20.23
2018-09-01T09:30:53.975Z,20.20
2018-09-01T09:31:54.149Z,20.23
2018-09-01T09:32:53.909Z,20.12
2018-09-01T09:33:53.867Z,20.23
2018-09-01T09:34:53.834Z,20.15
2018-09-01T09:35:53.806Z,20.18
2018-09-01T09:36:53.774Z,20.16
2018-09-01T09:37:54.036Z,20.18
2018-09-01T09:38:53.704Z,20.12
2018-09-01T09:39:53.669Z,20.20
2018-09-01T09:40:53.627Z,20.13
2018-09-01T09:41:53.616Z,20.15
2018-09-01T09:42:53.564Z,20.15
2018-09-01T09:43:53.941Z,20.12
2018-09-01T09:44:53.498Z,20.20
2018-09-01T09:45:53.470Z,20.10
2018-09-01T09:46:53.448Z,20.20
2018-09-01T09:47:53.403Z,20.24
2018-09-01T09:48:53.369Z,20.21
2018-09-01T09:49:53.526Z,20.33
2018-09-01T09:50:53.305Z,20.33
2018-09-01T09:51:53.259Z,20.39
2018-09-01T09:52:53.239Z,20.31
2018-09-01T09:53:53.203Z,20.39
2018-09-01T09:54:53.558Z,20.39
2018-09-01T09:55:53.140Z,20.42
2018-09-01T09:56:53.103Z,20.47
2018-09-01T09:57:53.063Z,20.59
2018-09-01T09:58:53.025Z,20.56
2018-09-01T09:59:53.308Z,20.64
2018-09-01T10:00:52.993Z,20.64
2018-09-01T10:01:52.921Z,20.65
2018-09-01T10:02:52.898Z,20.74
2018-09-01T10:03:52.861Z,20.76
2018-09-01T10:04:52.834Z,20.81
2018-09-01T10:05:53.001Z,20.89
2018-09-01T10:06:52.771Z,20.86
2018-09-01T10:07:52.721Z,20.91
2018-09-01T10:08:52.692Z,20.96
2018-09-01T10:09:52.655Z,20.98
2018-09-01T10:10:52.630Z,21.11
2018-09-01T10:11:52.844Z,21.14
2018-09-01T10:12:52.559Z,21.20
2018-09-01T10:13:52.532Z,21.21
2018-09-01T10:14:52.482Z,21.24
2018-09-01T10:15:52.525Z,21.34
2018-09-01T10:16:52.427Z,21.30
2018-09-01T10:17:52.401Z,21.27
2018-09-01T10:18:52.365Z,21.32
2018-09-01T10:19:52.354Z,21.42
2018-09-01T10:20:52.285Z,21.45
2018-09-01T10:21:52.457Z,21.41
2018-09-01T10:22:52.239Z,21.51
2018-09-01T10:23:52.194Z,21.51
2018-09-01T10:24:52.152Z,21.53
2018-09-01T10:25:52.117Z,21.57
2018-09-01T10:26:52.121Z,21.64
2018-09-01T10:27:52.365Z,21.69
2018-09-01T10:28:52.033Z,21.74
2018-09-01T10:29:51.993Z,21.74
2018-09-01T10:30:51.962Z,21.85
2018-09-01T10:31:51.929Z,21.91
2018-09-01T10:32:51.890Z,22.01
2018-09-01T10:33:52.206Z,22.06
2018-09-01T10:34:51.872Z,22.28
2018-09-01T10:35:51.793Z,22.86
2018-09-01T10:36:51.769Z,23.40
2018-09-01T10:37:51.743Z,23.94
2018-09-01T10:38:51.708Z,24.50
2018-09-01T10:39:51.871Z,25.13
2018-09-01T10:40:51.639Z,25.49
2018-09-01T10:41:51.595Z,26.05
2018-09-01T10:42:51.575Z,26.54
2018-09-01T10:43:51.535Z,26.83
2018-09-01T10:44:51.509Z,27.38
2018-09-01T10:45:51.476Z,27.58
2018-09-01T10:46:51.443Z,28.04
2018-09-01T10:47:51.429Z,28.41
2018-09-01T10:48:51.400Z,28.68
2018-09-01T10:49:51.352Z,29.01
2018-09-01T10:50:51.326Z,29.28
2018-09-01T10:51:51.294Z,29.47
2018-09-01T10:52:51.268Z,29.78
2018-09-01T10:53:51.250Z,30.03
2018-09-01T10:54:51.201Z,30.23
2018-09-01T10:55:51.180Z,30.54
2018-09-01T10:56:51.150Z,30.72
2018-09-01T10:57:51.112Z,30.96
2018-09-01T10:58:51.187Z,31.23
2018-09-01T10:59:51.151Z,31.38
2018-09-01T11:00:51.356Z,31.54
2018-09-01T11:01:50.996Z,31.68
2018-09-01T11:02:50.989Z,31.82
2018-09-01T11:03:50.954Z,32.07
2018-09-01T11:04:50.946Z,32.20
2018-09-01T11:05:50.900Z,32.37
2018-09-01T11:06:51.070Z,32.57
2018-09-01T11:07:50.846Z,32.79
2018-09-01T11:08:50.819Z,32.96
2018-09-01T11:09:50.786Z,33.13
2018-09-01T11:10:50.763Z,33.36
2018-09-01T11:11:50.751Z,33.49
2018-09-01T11:12:50.958Z,33.65
2018-09-01T11:13:50.687Z,33.80
2018-09-01T11:14:50.666Z,34.00
2018-09-01T11:15:50.618Z,34.14
2018-09-01T11:16:50.593Z,34.31
2018-09-01T11:17:50.573Z,34.51
2018-09-01T11:18:50.580Z,34.76
2018-09-01T11:19:50.528Z,34.84
2018-09-01T11:20:50.492Z,35.02
2018-09-01T11:21:50.761Z,35.23
2018-09-01T11:22:50.716Z,35.20
2018-09-01T11:23:50.421Z,35.26
2018-09-01T11:24:50.510Z,35.50
2018-09-01T11:25:50.361Z,35.62
2018-09-01T11:26:50.353Z,35.84
2018-09-01T11:27:50.330Z,35.93
2018-09-01T11:28:50.342Z,36.08
2018-09-01T11:29:50.406Z,36.26
2018-09-01T11:30:50.386Z,36.27
2018-09-01T11:31:50.307Z,36.46
2018-09-01T11:32:50.278Z,36.51
2018-09-01T11:33:50.325Z,36.56
2018-09-01T11:34:50.328Z,36.64
2018-09-01T11:35:50.107Z,36.90
2018-09-01T11:36:50.183Z,36.92
2018-09-01T11:37:50.042Z,37.12
2018-09-01T11:38:50.067Z,37.20
2018-09-01T11:39:50.132Z,37.33
2018-09-01T11:40:50.069Z,37.36
2018-09-01T11:41:49.959Z,37.55
2018-09-01T11:42:50.020Z,37.42
2018-09-01T11:43:49.960Z,37.58
2018-09-01T11:44:50.077Z,37.56
2018-09-01T11:45:49.848Z,37.58
2018-09-01T11:46:49.846Z,37.67
2018-09-01T11:47:49.797Z,37.78
2018-09-01T11:48:49.896Z,37.81
2018-09-01T11:49:49.752Z,37.99
2018-09-01T11:50:49.748Z,38.26
2018-09-01T11:51:49.749Z,38.34
2018-09-01T11:52:49.836Z,38.58
2018-09-01T11:53:49.679Z,38.68
2018-09-01T11:54:49.714Z,38.64
2018-09-01T11:55:49.737Z,38.78
2018-09-01T11:57:49.634Z,39.05
2018-09-01T11:58:49.657Z,39.14
2018-09-01T11:59:49.530Z,39.24
2018-09-01T12:00:49.618Z,39.30
2018-09-01T12:01:49.601Z,39.46
2018-09-01T12:02:49.469Z,39.51
2018-09-01T12:03:49.556Z,39.59
2018-09-01T12:04:49.513Z,39.74
2018-09-01T12:05:49.493Z,39.69
2018-09-01T12:06:49.537Z,39.80
2018-09-01T12:07:49.537Z,39.86
2018-09-01T12:08:49.456Z,40.04
2018-09-01T12:09:49.304Z,40.15
2018-09-01T12:10:49.284Z,40.23
2018-09-01T12:11:49.273Z,40.18
2018-09-01T12:12:49.246Z,40.32
2018-09-01T12:13:49.359Z,40.43
2018-09-01T12:14:49.260Z,40.57
2018-09-01T12:15:49.273Z,40.62
2018-09-01T12:16:49.335Z,40.69
2018-09-01T12:17:49.307Z,40.71
2018-09-01T12:18:49.129Z,40.74
2018-09-01T12:19:49.209Z,40.98
2018-09-01T12:20:49.269Z,41.00
2018-09-01T12:21:49.292Z,41.00
2018-09-01T12:22:49.038Z,41.12
2018-09-01T12:23:49.020Z,41.18
2018-09-01T12:24:49.023Z,41.36
2018-09-01T12:25:48.977Z,41.39
2018-09-01T12:26:48.972Z,41.43
2018-09-01T12:27:48.969Z,41.56
2018-09-01T12:28:48.943Z,41.55
2018-09-01T12:29:48.913Z,41.56
2018-09-01T12:30:48.902Z,41.56
2018-09-01T12:31:48.876Z,41.71
2018-09-01T12:32:48.972Z,41.70
2018-09-01T12:33:49.543Z,41.70
2018-09-01T12:34:49.101Z,41.88
2018-09-01T12:35:48.858Z,41.96
2018-09-01T12:36:48.764Z,41.97
2018-09-01T12:37:48.747Z,42.15
2018-09-01T12:38:48.852Z,42.28
2018-09-01T12:39:48.709Z,42.35
2018-09-01T12:40:48.691Z,42.50
2018-09-01T12:41:48.696Z,42.56
2018-09-01T12:42:48.949Z,42.66
2018-09-01T12:43:48.641Z,42.70
2018-09-01T12:44:48.617Z,42.79
2018-09-01T12:45:48.635Z,42.88
2018-09-01T12:46:48.572Z,42.91
2018-09-01T12:47:48.570Z,43.04
2018-09-01T12:48:48.554Z,43.11
2018-09-01T12:49:48.522Z,43.30
2018-09-01T12:50:48.513Z,43.48
2018-09-01T12:51:48.489Z,43.53
2018-09-01T12:52:48.563Z,43.58
2018-09-01T12:53:48.620Z,43.52
2018-09-01T12:54:48.533Z,43.57